This is the latest recevied weather packets stored in our database for station/object NK2J. If no packets are shown the sender has not sent any weather packets the latest 1 day(s).
| Time | Temp. | Humidity | Pressure | Rain* | Wind** | Luminosity | Snow |
|---|---|---|---|---|---|---|---|
| 1777998196 | 20° C | 58% | 1013.8 hPa | 0 mm | 1.79 m/s, 332° | 126 W/m² | - |
| 1777997893 | 21.11° C | 55% | 1013.6 hPa | 0 mm | 0.45 m/s, 57° | 352 W/m² | - |
| 1777997590 | 20.56° C | 58% | 1013.7 hPa | 0 mm | 0.45 m/s, 56° | 633 W/m² | - |
| 1777997288 | 20° C | 62% | 1013.8 hPa | 0 mm | 0.89 m/s, 102° | 640 W/m² | - |
| 1777996985 | 20° C | 64% | 1014 hPa | 0 mm | 0.45 m/s, 6° | 412 W/m² | - |
| 1777996682 | 19.44° C | 66% | 1013.9 hPa | 0 mm | 0.89 m/s, 40° | 351 W/m² | - |
| 1777996377 | 19.44° C | 65% | 1014 hPa | 0 mm | 0.45 m/s, 63° | 180 W/m² | - |
| 1777996074 | 19.44° C | 65% | 1014 hPa | 0 mm | 0.45 m/s, 11° | 169 W/m² | - |
| 1777995770 | 20° C | 65% | 1013.7 hPa | 0 mm | 0.45 m/s, 61° | 332 W/m² | - |
| 1777995467 | 19.44° C | 69% | 1013.7 hPa | 0 mm | 0.89 m/s, 295° | 263 W/m² | - |
| 1777995164 | 19.44° C | 68% | 1013.6 hPa | 0 mm | 0.45 m/s, 31° | 495 W/m² | - |
| 1777994861 | 19.44° C | 69% | 1013.6 hPa | 0 mm | 0.89 m/s, 350° | 489 W/m² | - |
| 1777994558 | 18.89° C | 71% | 1013.8 hPa | 0 mm | 1.34 m/s, 312° | 385 W/m² | - |
| 1777994252 | 18.89° C | 71% | 1013.7 hPa | 0 mm | 0.89 m/s, 353° | 168 W/m² | - |
| 1777993950 | 18.89° C | 71% | 1013.7 hPa | 0 mm | 0.89 m/s, 5° | 141 W/m² | - |
| 1777993647 | 18.89° C | 72% | 1013.7 hPa | 0 mm | 0.89 m/s, 6° | 195 W/m² | - |
| 1777993344 | 18.89° C | 70% | 1013.6 hPa | 0 mm | 0.45 m/s, 19° | 372 W/m² | - |
| 1777993046 | 18.33° C | 75% | 1013.7 hPa | 0 mm | 0.89 m/s, 328° | 197 W/m² | - |
| 1777992742 | 18.33° C | 77% | 1013.7 hPa | 0 mm | 1.34 m/s, 7° | 185 W/m² | - |
| 1777992439 | 18.33° C | 78% | 1013.7 hPa | 0 mm | 0.45 m/s, 54° | 165 W/m² | - |
| 1777992138 | 17.78° C | 79% | 1013.6 hPa | 0 mm | 1.34 m/s, 308° | 137 W/m² | - |
| 1777991834 | 17.78° C | 80% | 1013.8 hPa | 0 mm | 0.89 m/s, 12° | 124 W/m² | - |
| 1777991532 | 17.78° C | 80% | 1013.7 hPa | 0 mm | 0.89 m/s, 348° | 127 W/m² | - |
| 1777991228 | 17.78° C | 81% | 1013.8 hPa | 0 mm | 0.45 m/s, 340° | 120 W/m² | - |
| 1777990926 | 17.78° C | 81% | 1013.6 hPa | 0 mm | 0.45 m/s, 308° | 103 W/m² | - |
* Rain latest hour (hover to see other rain measurements)
** Current wind speed in m/s (hover to see current wind gust speed)